Time;durP1;ratioP1;P1;durP2;ratioP2;P2;SDS_P1;SDS_P2;PMS_P1;PMS_P2;Temp;Humidity;BMP_temperature;BMP_pressure;BME280_temperature;BME280_humidity;BME280_pressure;Samples;Min_cycle;Max_cycle;Signal;HPM_P1;HPM_P2
2023/12/26 00:00:26;;;;;;;510.15;289.83;;;;;;;11.11;100.00;97502.72;5057852;28;20025;-56
2023/12/26 00:02:51;;;;;;;531.83;243.55;;;;;;;10.97;100.00;97503.78;5058186;28;20020;-56
2023/12/26 00:05:17;;;;;;;535.25;343.30;;;;;;;11.07;100.00;97492.34;5056248;28;20105;-56
2023/12/26 00:07:42;;;;;;;651.35;337.25;;;;;;;11.12;100.00;97497.50;5058148;28;20064;-56
2023/12/26 00:10:08;;;;;;;531.75;252.10;;;;;;;11.07;100.00;97497.56;5057839;28;20016;-56
2023/12/26 00:12:33;;;;;;;605.53;256.75;;;;;;;11.15;100.00;97491.41;5057283;28;20051;-57
2023/12/26 00:14:58;;;;;;;550.63;307.95;;;;;;;11.06;100.00;97482.84;5058355;28;20111;-57
2023/12/26 00:17:24;;;;;;;524.70;258.58;;;;;;;10.99;100.00;97481.19;5058679;28;20098;-57
2023/12/26 00:19:49;;;;;;;484.65;261.15;;;;;;;11.00;100.00;97480.34;5057572;28;20288;-56
2023/12/26 00:22:15;;;;;;;528.78;279.27;;;;;;;11.18;100.00;97483.56;5057796;28;20087;-57
2023/12/26 00:24:41;;;;;;;575.05;297.70;;;;;;;11.10;100.00;97477.59;5056428;28;20046;-56
2023/12/26 00:27:06;;;;;;;561.22;310.15;;;;;;;10.99;100.00;97481.19;5058012;28;20051;-57
2023/12/26 00:29:31;;;;;;;593.55;307.88;;;;;;;11.02;100.00;97478.56;5057261;28;20032;-54
2023/12/26 00:31:57;;;;;;;544.97;307.05;;;;;;;11.23;100.00;97470.47;5058509;28;20040;-56
2023/12/26 00:34:22;;;;;;;494.70;279.27;;;;;;;11.20;100.00;97476.56;5059070;28;20031;-57
2023/12/26 00:36:48;;;;;;;494.95;283.70;;;;;;;11.09;100.00;97462.88;5057719;28;20045;-55
2023/12/26 00:39:14;;;;;;;586.22;284.50;;;;;;;11.03;100.00;97469.03;5057378;28;20190;-56
2023/12/26 00:41:39;;;;;;;667.22;292.48;;;;;;;10.97;100.00;97475.16;5056698;28;20056;-56
2023/12/26 00:44:05;;;;;;;541.67;286.02;;;;;;;11.00;100.00;97469.91;5058752;28;20304;-56
2023/12/26 00:46:31;;;;;;;527.63;237.95;;;;;;;11.07;100.00;97468.94;5057016;28;20523;-56
2023/12/26 00:48:56;;;;;;;503.08;253.77;;;;;;;11.15;100.00;97478.38;5059169;28;20176;-56
2023/12/26 00:51:22;;;;;;;471.80;251.95;;;;;;;11.09;100.00;97466.31;5062033;28;20182;-56
2023/12/26 00:53:47;;;;;;;665.63;292.92;;;;;;;10.79;100.00;97471.91;5060739;28;20032;-56
2023/12/26 00:56:13;;;;;;;501.17;262.95;;;;;;;10.76;100.00;97466.75;5060959;28;20045;-54
2023/12/26 00:58:38;;;;;;;645.22;279.85;;;;;;;10.88;100.00;97460.50;5061157;28;20031;-54
2023/12/26 01:01:04;;;;;;;559.03;297.15;;;;;;;10.99;100.00;97460.38;5060379;28;20369;-55
2023/12/26 01:03:29;;;;;;;527.67;270.05;;;;;;;11.10;100.00;97464.59;5059155;28;20040;-57
2023/12/26 01:05:54;;;;;;;587.70;331.13;;;;;;;10.86;100.00;97466.63;5055656;28;20037;-58
2023/12/26 01:08:20;;;;;;;564.47;302.10;;;;;;;10.84;100.00;97473.59;5056277;28;20391;-58
2023/12/26 01:10:45;;;;;;;629.03;290.30;;;;;;;10.87;100.00;97471.81;5054796;28;20145;-57
2023/12/26 01:13:11;;;;;;;556.45;265.13;;;;;;;10.87;100.00;97474.41;5057705;28;20317;-56
2023/12/26 01:15:38;;;;;;;735.22;328.10;;;;;;;11.16;100.00;97480.09;5055818;28;20052;-55
2023/12/26 01:18:04;;;;;;;591.83;264.60;;;;;;;11.07;100.00;97486.31;5055513;28;20403;-56
2023/12/26 01:20:29;;;;;;;525.08;248.27;;;;;;;10.86;100.00;97482.22;5055606;28;20038;-56
2023/12/26 01:22:55;;;;;;;617.22;287.42;;;;;;;10.85;100.00;97483.13;5055504;28;20178;-56
2023/12/26 01:25:20;;;;;;;528.10;264.02;;;;;;;10.98;100.00;97489.03;5057432;28;20036;-55
2023/12/26 01:27:47;;;;;;;618.15;252.88;;;;;;;10.87;100.00;97483.97;5056342;28;20040;-56
2023/12/26 01:30:12;;;;;;;575.25;262.40;;;;;;;10.98;100.00;97489.88;5056296;28;20043;-56
2023/12/26 01:32:38;;;;;;;618.10;264.00;;;;;;;10.85;100.00;97490.91;5056159;28;20214;-56
2023/12/26 01:35:03;;;;;;;545.78;241.50;;;;;;;10.83;100.00;97482.28;5057140;28;20353;-57
2023/12/26 01:37:29;;;;;;;559.03;248.75;;;;;;;11.07;100.00;97484.56;5057377;28;20032;-55
2023/12/26 01:39:54;;;;;;;565.03;352.10;;;;;;;11.05;100.00;97486.31;5055744;28;20236;-56
2023/12/26 01:42:19;;;;;;;536.97;324.45;;;;;;;11.07;100.00;97487.16;5057701;28;20269;-55
2023/12/26 01:44:45;;;;;;;628.33;249.07;;;;;;;11.12;100.00;97486.22;5055757;28;20796;-56
2023/12/26 01:47:12;;;;;;;587.95;267.65;;;;;;;10.89;100.00;97488.28;5055484;28;20075;-57
2023/12/26 01:49:37;;;;;;;589.92;294.35;;;;;;;10.91;100.00;97493.47;5056544;28;20395;-57
2023/12/26 01:52:07;;;;;;;601.28;302.88;;;;;;;11.15;100.00;97489.66;5056871;28;20024;-57
2023/12/26 01:54:35;;;;;;;598.72;349.40;;;;;;;10.97;100.00;97488.16;5057849;28;20256;-55
2023/12/26 01:57:02;;;;;;;592.25;334.80;;;;;;;11.15;100.00;97488.81;5056682;28;20137;-56
2023/12/26 01:59:28;;;;;;;614.10;307.70;;;;;;;11.12;100.00;97491.44;5056462;28;20051;-57
2023/12/26 02:01:54;;;;;;;566.70;290.08;;;;;;;10.97;100.00;97484.69;5055750;28;20406;-56
2023/12/26 02:04:19;;;;;;;560.83;287.60;;;;;;;10.91;100.00;97481.28;5054788;28;20021;-58
2023/12/26 02:06:44;;;;;;;610.35;298.85;;;;;;;10.87;100.00;97490.03;5055701;28;20072;-57
2023/12/26 02:09:10;;;;;;;617.58;291.95;;;;;;;10.71;100.00;97485.88;5054720;28;20257;-59
2023/12/26 02:11:38;;;;;;;592.13;285.23;;;;;;;10.79;100.00;97481.44;5055239;28;20558;-55
2023/12/26 02:14:04;;;;;;;631.90;387.38;;;;;;;10.93;100.00;97483.88;5055520;28;20046;-58
2023/12/26 02:16:32;;;;;;;597.15;328.58;;;;;;;11.20;100.00;97481.78;5057332;28;20496;-56
2023/12/26 02:18:57;;;;;;;553.33;354.05;;;;;;;11.28;100.00;97484.28;5054734;28;20696;-57
2023/12/26 02:21:22;;;;;;;535.15;305.13;;;;;;;11.00;100.00;97479.47;5056443;28;20247;-56
2023/12/26 02:23:55;;;;;;;679.63;313.50;;;;;;;10.92;100.00;97476.97;5056306;28;20300;-56
2023/12/26 02:26:26;;;;;;;580.92;265.55;;;;;;;10.86;100.00;97479.63;5056495;28;20404;-56
2023/12/26 02:28:53;;;;;;;642.75;262.90;;;;;;;11.06;100.00;97468.94;5055843;28;20103;-56
2023/12/26 02:31:20;;;;;;;572.38;291.90;;;;;;;10.87;100.00;97474.41;5056457;28;20518;-57
2023/12/26 02:33:47;;;;;;;632.55;304.73;;;;;;;11.24;100.00;97470.44;5054972;28;20047;-57
2023/12/26 02:36:13;;;;;;;622.95;303.30;;;;;;;11.11;100.00;97474.09;5055327;28;20043;-56
2023/12/26 02:38:38;;;;;;;640.55;281.05;;;;;;;10.96;100.00;97475.19;5054686;28;20028;-56
2023/12/26 02:41:03;;;;;;;654.83;377.30;;;;;;;11.36;100.00;97476.38;5054266;28;20070;-56
2023/12/26 02:43:29;;;;;;;613.75;319.60;;;;;;;11.30;100.00;97475.59;5054793;28;20035;-56
2023/12/26 02:45:54;;;;;;;636.72;294.65;;;;;;;11.28;100.00;97474.72;5051444;28;20503;-56
2023/12/26 02:48:20;;;;;;;597.92;283.52;;;;;;;11.01;100.00;97479.44;5056276;28;20043;-55
2023/12/26 02:50:46;;;;;;;742.25;502.90;;;;;;;11.75;100.00;97473.16;5053461;28;20037;-57
2023/12/26 02:53:11;;;;;;;591.90;301.02;;;;;;;11.22;100.00;97479.16;5054417;28;20511;-56
2023/12/26 02:55:37;;;;;;;596.72;274.70;;;;;;;11.16;100.00;97473.16;5054165;28;20500;-55
2023/12/26 02:58:02;;;;;;;596.05;272.83;;;;;;;11.03;100.00;97480.25;5055384;28;20119;-56
2023/12/26 03:00:28;;;;;;;641.15;290.48;;;;;;;10.96;100.00;97489.06;5055207;28;20346;-56
2023/12/26 03:02:53;;;;;;;637.75;289.48;;;;;;;11.07;100.00;97487.16;5053525;28;20024;-59
2023/12/26 03:05:18;;;;;;;592.35;288.05;;;;;;;11.17;100.00;97477.47;5054279;28;20013;-58
2023/12/26 03:07:44;;;;;;;681.35;321.42;;;;;;;11.09;100.00;97468.91;5052779;28;20124;-58
2023/12/26 03:10:09;;;;;;;589.85;271.65;;;;;;;11.10;100.00;97469.78;5054550;28;20024;-59
2023/12/26 03:12:38;;;;;;;639.22;321.52;;;;;;;11.96;100.00;97471.94;5053608;28;20476;-58
2023/12/26 03:15:04;;;;;;;650.72;347.05;;;;;;;11.22;100.00;97469.63;5053617;28;20020;-58
2023/12/26 03:17:29;;;;;;;562.55;261.77;;;;;;;11.15;100.00;97478.38;5054707;28;20715;-57
2023/12/26 03:19:55;;;;;;;632.10;322.30;;;;;;;11.52;100.00;97477.84;5054202;28;20028;-56
2023/12/26 03:22:21;;;;;;;618.63;273.48;;;;;;;11.46;100.00;97483.16;5054480;28;20404;-56
2023/12/26 03:24:46;;;;;;;646.15;302.63;;;;;;;11.00;100.00;97477.72;5053323;28;20479;-57
2023/12/26 03:27:12;;;;;;;586.70;267.20;;;;;;;11.22;100.00;97487.84;5053648;28;20500;-55
2023/12/26 03:29:38;;;;;;;663.67;281.30;;;;;;;11.43;100.00;97480.59;5053433;28;20060;-57
2023/12/26 03:32:04;;;;;;;629.60;306.23;;;;;;;10.97;100.00;97489.91;5052493;28;20349;-57
2023/12/26 03:34:29;;;;;;;598.70;290.23;;;;;;;10.58;100.00;97486.03;5055249;28;20029;-56
2023/12/26 03:36:54;;;;;;;757.72;312.27;;;;;;;10.96;100.00;97489.06;5052938;28;20502;-56
2023/12/26 03:39:20;;;;;;;726.58;425.38;;;;;;;11.39;100.00;97490.19;5054937;28;20020;-55
2023/12/26 03:41:48;;;;;;;694.83;369.02;;;;;;;11.30;100.00;97498.13;5053030;28;20044;-55
2023/12/26 03:44:15;;;;;;;645.92;370.58;;;;;;;11.09;100.00;97489.75;5052697;28;20051;-55
2023/12/26 03:46:41;;;;;;;682.15;416.67;;;;;;;11.13;100.00;97498.38;5053052;28;20576;-57
2023/12/26 03:49:07;;;;;;;705.38;445.50;;;;;;;12.11;100.00;97483.88;5053481;28;20432;-57
2023/12/26 03:51:32;;;;;;;642.70;359.73;;;;;;;11.64;100.00;97504.59;5052864;28;20629;-57
2023/12/26 03:53:58;;;;;;;675.10;318.00;;;;;;;11.11;100.00;97513.16;5051997;28;20059;-58
2023/12/26 03:56:28;;;;;;;623.15;312.50;;;;;;;11.36;100.00;97502.41;5053400;28;20399;-59
2023/12/26 03:58:54;;;;;;;739.38;321.77;;;;;;;11.49;100.00;97516.97;5052971;28;20116;-58
2023/12/26 04:01:19;;;;;;;609.95;291.10;;;;;;;11.18;100.00;97512.19;5054011;28;20036;-57
2023/12/26 04:03:44;;;;;;;747.95;518.70;;;;;;;11.79;100.00;97509.56;5053647;28;20243;-56
2023/12/26 04:06:10;;;;;;;725.50;485.23;;;;;;;11.74;100.00;97518.31;5053103;28;20064;-55
2023/12/26 04:08:35;;;;;;;662.50;367.38;;;;;;;11.26;100.00;97522.50;5053338;28;20069;-57
2023/12/26 04:11:01;;;;;;;685.13;415.27;;;;;;;11.20;100.00;97529.50;5050299;28;20064;-55
2023/12/26 04:13:26;;;;;;;707.70;464.92;;;;;;;11.36;100.00;97531.03;5053979;28;20050;-57
2023/12/26 04:15:52;;;;;;;747.30;560.05;;;;;;;12.54;100.00;97531.78;5053662;28;20775;-55
2023/12/26 04:18:17;;;;;;;677.83;461.83;;;;;;;11.91;100.00;97534.56;5054204;28;20255;-55
2023/12/26 04:20:43;;;;;;;737.97;392.00;;;;;;;11.45;100.00;97529.19;5052635;28;20043;-56
2023/12/26 04:23:08;;;;;;;710.40;416.23;;;;;;;11.63;100.00;97523.69;5055451;28;20456;-55
2023/12/26 04:25:33;;;;;;;705.25;516.90;;;;;;;12.05;100.00;97513.50;5056839;28;20060;-56
2023/12/26 04:27:59;;;;;;;685.38;332.42;;;;;;;12.19;100.00;97507.19;5056098;28;20134;-56
2023/12/26 04:30:24;;;;;;;777.15;549.17;;;;;;;11.87;100.00;97511.19;5057903;28;20185;-58
2023/12/26 04:32:49;;;;;;;775.10;365.65;;;;;;;11.80;100.00;97526.91;5056368;28;20113;-56
2023/12/26 04:35:15;;;;;;;748.28;456.30;;;;;;;11.78;100.00;97535.63;5057325;28;20040;-57
2023/12/26 04:37:40;;;;;;;693.47;510.63;;;;;;;11.58;100.00;97521.19;5056806;28;20063;-58
2023/12/26 04:40:07;;;;;;;694.60;409.58;;;;;;;11.23;100.00;97526.00;5057000;28;20269;-55
2023/12/26 04:42:32;;;;;;;717.08;523.78;;;;;;;11.36;100.00;97528.44;5058762;28;20111;-57
2023/12/26 04:44:57;;;;;;;875.45;488.25;;;;;;;11.64;100.00;97515.00;5057243;28;20116;-57
2023/12/26 04:47:23;;;;;;;700.78;440.05;;;;;;;11.48;100.00;97528.28;5057230;28;20419;-58
2023/12/26 04:49:48;;;;;;;818.22;459.75;;;;;;;11.16;100.00;97522.63;5057163;28;20064;-56
2023/12/26 04:52:14;;;;;;;702.70;515.35;;;;;;;11.42;100.00;97518.78;5056748;28;20098;-57
2023/12/26 04:54:40;;;;;;;686.25;396.80;;;;;;;11.20;100.00;97513.88;5058840;28;20547;-57
2023/12/26 04:57:05;;;;;;;711.58;372.42;;;;;;;11.20;100.00;97523.44;5071831;28;20162;-56
2023/12/26 04:59:31;;;;;;;678.78;409.85;;;;;;;10.84;100.00;97513.47;5058932;28;20024;-61
2023/12/26 05:01:56;;;;;;;742.60;325.23;;;;;;;11.23;100.00;97517.31;5056858;28;20466;-58
2023/12/26 05:04:22;;;;;;;695.70;476.45;;;;;;;11.74;100.00;97506.19;5058389;28;20050;-57
2023/12/26 05:06:47;;;;;;;745.05;387.00;;;;;;;10.97;100.00;97511.59;5056117;28;20045;-57
2023/12/26 05:09:15;;;;;;;684.67;359.38;;;;;;;11.02;100.00;97514.97;5057594;28;20173;-57
2023/12/26 05:11:41;;;;;;;649.70;302.45;;;;;;;10.98;100.00;97526.31;5055935;28;20351;-57
2023/12/26 05:14:06;;;;;;;694.90;399.60;;;;;;;11.12;100.00;97520.94;5055650;28;20023;-57
2023/12/26 05:16:31;;;;;;;669.03;400.88;;;;;;;11.63;100.00;97510.69;5056810;28;20492;-55
2023/12/26 05:18:57;;;;;;;821.83;374.88;;;;;;;11.07;100.00;97520.13;5055616;28;20029;-55
2023/12/26 05:21:23;;;;;;;670.50;351.13;;;;;;;10.98;100.00;97505.50;5055104;28;20037;-57
2023/12/26 05:23:48;;;;;;;734.17;382.63;;;;;;;11.36;100.00;97499.81;5054337;28;20115;-56
2023/12/26 05:26:14;;;;;;;678.75;355.27;;;;;;;10.80;100.00;97499.63;5056154;28;20816;-55
2023/12/26 05:28:40;;;;;;;644.35;364.40;;;;;;;10.52;100.00;97502.59;5057163;28;20021;-56
2023/12/26 05:31:05;;;;;;;716.00;493.95;;;;;;;10.89;100.00;97496.09;5054962;28;20040;-56
2023/12/26 05:33:34;;;;;;;668.53;337.83;;;;;;;10.49;100.00;97510.41;5057961;28;20055;-56
2023/12/26 05:36:01;;;;;;;788.92;474.95;;;;;;;10.78;100.00;97511.81;5054022;28;20048;-56
2023/12/26 05:38:26;;;;;;;652.53;361.02;;;;;;;10.79;100.00;97508.34;5058878;28;20016;-56
2023/12/26 05:40:51;;;;;;;748.38;442.77;;;;;;;10.89;100.00;97503.88;5055830;28;20117;-57
2023/12/26 05:43:17;;;;;;;682.20;467.67;;;;;;;10.89;100.00;97510.81;5056740;28;20038;-57
2023/12/26 05:45:42;;;;;;;653.90;362.00;;;;;;;10.97;100.00;97506.38;5056451;28;20040;-57
2023/12/26 05:48:08;;;;;;;668.20;360.95;;;;;;;11.09;100.00;97515.75;5055567;28;20016;-57
2023/12/26 05:50:33;;;;;;;655.45;388.02;;;;;;;11.22;100.00;97515.59;5056879;28;20732;-57
2023/12/26 05:52:59;;;;;;;832.50;400.77;;;;;;;10.59;100.00;97523.31;5054896;28;20065;-57
2023/12/26 05:55:24;;;;;;;690.80;408.80;;;;;;;10.77;100.00;97530.03;5057427;28;20032;-57
2023/12/26 05:57:49;;;;;;;809.67;575.10;;;;;;;11.10;100.00;97516.63;5055226;28;20029;-57
2023/12/26 06:00:15;;;;;;;657.35;393.02;;;;;;;10.91;100.00;97522.09;5056564;28;20614;-57
2023/12/26 06:02:41;;;;;;;685.92;424.48;;;;;;;10.82;100.00;97523.03;5057818;28;20037;-56
2023/12/26 06:05:07;;;;;;;729.10;481.73;;;;;;;11.12;100.00;97533.06;5054642;28;20412;-57
2023/12/26 06:07:33;;;;;;;624.15;361.95;;;;;;;11.11;100.00;97545.25;5057136;28;20086;-58
2023/12/26 06:09:59;;;;;;;768.38;373.10;;;;;;;11.10;100.00;97540.06;5054660;28;20451;-58
2023/12/26 06:12:24;;;;;;;632.65;394.38;;;;;;;11.58;100.00;97539.41;5057684;28;20028;-57
2023/12/26 06:14:50;;;;;;;739.47;383.42;;;;;;;11.18;100.00;97536.47;5056371;28;20031;-58
2023/12/26 06:17:16;;;;;;;629.38;363.60;;;;;;;11.23;100.00;97549.44;5056578;28;20069;-59
2023/12/26 06:19:41;;;;;;;618.08;360.40;;;;;;;10.94;100.00;97548.03;5056650;28;20036;-56
2023/12/26 06:22:07;;;;;;;645.08;398.08;;;;;;;10.78;100.00;97553.44;5055507;28;20206;-57
2023/12/26 06:24:32;;;;;;;659.92;318.15;;;;;;;10.45;100.00;97559.84;5056914;28;20530;-55
2023/12/26 06:26:58;;;;;;;740.97;313.50;;;;;;;10.79;100.00;97557.75;5055447;28;20056;-57
2023/12/26 06:29:23;;;;;;;647.92;358.42;;;;;;;11.04;100.00;97551.41;5056426;28;20051;-57
2023/12/26 06:31:49;;;;;;;625.33;308.98;;;;;;;11.30;100.00;97548.47;5055489;28;20052;-55
2023/12/26 06:34:14;;;;;;;621.60;334.40;;;;;;;11.08;100.00;97555.69;5056237;28;20450;-56
2023/12/26 06:36:40;;;;;;;614.47;359.33;;;;;;;11.05;100.00;97555.72;5056869;28;20208;-56
2023/12/26 06:39:06;;;;;;;725.33;319.10;;;;;;;10.72;100.00;97556.09;5054550;28;20554;-56
2023/12/26 06:41:31;;;;;;;612.40;299.15;;;;;;;11.02;100.00;97558.38;5057160;28;20044;-57
2023/12/26 06:43:57;;;;;;;685.88;296.50;;;;;;;10.94;100.00;97559.31;5054155;28;20047;-57
2023/12/26 06:46:22;;;;;;;633.47;340.23;;;;;;;11.06;100.00;97560.03;5055759;28;20036;-58
2023/12/26 06:48:48;;;;;;;584.63;286.75;;;;;;;10.99;100.00;97561.84;5055149;28;20393;-56
2023/12/26 06:51:15;;;;;;;604.00;280.85;;;;;;;11.06;100.00;97563.50;5054396;28;20043;-57
2023/12/26 06:53:41;;;;;;;671.78;432.60;;;;;;;10.91;100.00;97574.13;5055767;28;20694;-55
2023/12/26 06:56:08;;;;;;;801.78;513.70;;;;;;;11.38;100.00;97576.13;5053339;28;20470;-57
2023/12/26 06:58:34;;;;;;;678.08;411.88;;;;;;;11.29;100.00;97579.72;5056550;28;20518;-56
2023/12/26 07:01:00;;;;;;;657.88;313.48;;;;;;;11.62;100.00;97579.28;5052185;28;20036;-57
2023/12/26 07:03:25;;;;;;;566.25;270.77;;;;;;;11.16;100.00;97586.81;5056522;28;20027;-59
2023/12/26 07:05:50;;;;;;;588.92;336.10;;;;;;;11.57;100.00;97589.75;5053545;28;20335;-59
2023/12/26 07:08:16;;;;;;;543.38;244.73;;;;;;;11.58;100.00;97596.72;5056211;28;20439;-58
2023/12/26 07:10:41;;;;;;;560.42;268.20;;;;;;;11.30;100.00;97602.28;5054511;28;20139;-56
2023/12/26 07:13:07;;;;;;;740.80;370.02;;;;;;;11.37;100.00;97598.72;5053081;28;20025;-56
2023/12/26 07:15:32;;;;;;;580.75;316.63;;;;;;;11.35;100.00;97610.88;5055154;28;20123;-57
2023/12/26 07:17:58;;;;;;;708.28;296.27;;;;;;;11.27;100.00;97613.59;5054108;28;20036;-57
2023/12/26 07:20:23;;;;;;;590.58;280.90;;;;;;;11.36;100.00;97619.56;5054796;28;20495;-56
2023/12/26 07:22:48;;;;;;;660.80;391.52;;;;;;;11.28;100.00;97624.88;5055774;28;20119;-57
2023/12/26 07:25:14;;;;;;;639.85;348.70;;;;;;;11.45;100.00;97638.53;5052900;28;20016;-57
2023/12/26 07:27:39;;;;;;;606.80;303.65;;;;;;;10.87;100.00;97630.50;5055788;28;20370;-57
2023/12/26 07:30:05;;;;;;;746.10;344.83;;;;;;;11.54;100.00;97637.56;5053306;28;20048;-57
2023/12/26 07:32:31;;;;;;;578.80;291.95;;;;;;;11.53;100.00;97648.84;5055004;28;20445;-57
2023/12/26 07:34:56;;;;;;;739.35;324.98;;;;;;;11.49;100.00;97641.97;5053713;28;20601;-58
2023/12/26 07:37:21;;;;;;;609.17;386.00;;;;;;;11.35;100.00;97647.34;5055451;28;20047;-56
2023/12/26 07:39:47;;;;;;;604.20;326.42;;;;;;;11.70;100.00;97658.19;5056014;28;20029;-58
2023/12/26 07:42:12;;;;;;;628.08;341.35;;;;;;;11.53;100.00;97667.09;5053426;28;20040;-57
2023/12/26 07:44:38;;;;;;;615.80;333.42;;;;;;;11.32;100.00;97674.28;5055887;28;20555;-57
2023/12/26 07:47:03;;;;;;;727.60;306.58;;;;;;;11.36;100.00;97689.88;5053722;28;20032;-56
2023/12/26 07:49:29;;;;;;;611.60;351.15;;;;;;;11.13;100.00;97694.44;5055253;28;20020;-58
2023/12/26 07:51:54;;;;;;;694.55;408.80;;;;;;;12.00;100.00;97691.66;5053429;28;20040;-56
2023/12/26 07:54:20;;;;;;;567.88;268.10;;;;;;;11.27;100.00;97696.91;5054824;28;20036;-57
2023/12/26 07:56:45;;;;;;;644.75;369.98;;;;;;;11.31;100.00;97703.78;5053521;28;20477;-57
2023/12/26 07:59:10;;;;;;;803.63;355.20;;;;;;;11.59;100.00;97708.66;5052565;28;20031;-57
2023/12/26 08:01:36;;;;;;;584.38;295.90;;;;;;;11.76;100.00;97710.22;5055467;28;20562;-57
2023/12/26 08:04:02;;;;;;;687.72;331.88;;;;;;;11.65;100.00;97712.94;5053365;28;20028;-57
2023/12/26 08:06:27;;;;;;;626.90;325.10;;;;;;;11.29;100.00;97707.28;5054792;28;20510;-55
2023/12/26 08:08:53;;;;;;;632.10;322.95;;;;;;;11.25;100.00;97706.44;5055854;28;20052;-56
2023/12/26 08:11:20;;;;;;;586.58;284.95;;;;;;;11.26;100.00;97709.94;5051752;28;20032;-57
2023/12/26 08:13:45;;;;;;;622.65;323.33;;;;;;;11.72;100.00;97708.53;5054536;28;20040;-56
2023/12/26 08:16:10;;;;;;;693.00;282.35;;;;;;;11.54;100.00;97705.25;5053083;28;20051;-57
2023/12/26 08:18:36;;;;;;;600.17;280.80;;;;;;;11.55;100.00;97713.94;5054652;28;20025;-55
2023/12/26 08:21:02;;;;;;;760.83;421.70;;;;;;;11.76;100.00;97727.59;5052184;28;20036;-58
2023/12/26 08:23:28;;;;;;;598.33;282.52;;;;;;;11.35;100.00;97732.41;5055494;28;20024;-59
2023/12/26 08:25:53;;;;;;;600.95;283.33;;;;;;;11.22;100.00;97737.75;5054898;28;20040;-59
2023/12/26 08:28:19;;;;;;;668.10;453.10;;;;;;;12.10;100.00;97730.66;5054236;28;20115;-58
2023/12/26 08:30:44;;;;;;;640.28;338.08;;;;;;;11.94;100.00;97726.50;5055690;28;20115;-59
2023/12/26 08:33:10;;;;;;;743.83;335.48;;;;;;;11.52;100.00;97732.22;5053709;28;20388;-59
2023/12/26 08:35:35;;;;;;;654.10;323.70;;;;;;;11.49;100.00;97742.66;5055526;28;20040;-60
2023/12/26 08:38:01;;;;;;;725.80;416.45;;;;;;;11.59;100.00;97741.69;5054550;28;20398;-60
2023/12/26 08:40:26;;;;;;;657.88;350.15;;;;;;;11.35;100.00;97741.06;5055515;28;20509;-58
2023/12/26 08:42:51;;;;;;;655.33;365.75;;;;;;;11.41;100.00;97738.41;5055729;28;20031;-59
2023/12/26 08:45:17;;;;;;;604.63;413.90;;;;;;;11.97;100.00;97744.69;5054409;28;20371;-58
2023/12/26 08:47:43;;;;;;;674.05;497.73;;;;;;;11.95;100.00;97741.28;5055201;28;20028;-59
2023/12/26 08:50:09;;;;;;;711.50;370.55;;;;;;;11.37;100.00;97744.53;5054124;28;20062;-59
2023/12/26 08:52:34;;;;;;;690.97;464.08;;;;;;;11.87;100.00;97746.56;5055892;28;20411;-58
2023/12/26 08:55:00;;;;;;;680.33;338.80;;;;;;;11.63;100.00;97758.13;5054930;28;20055;-59
2023/12/26 08:57:25;;;;;;;647.65;391.05;;;;;;;11.55;100.00;97755.63;5055655;28;20036;-58
2023/12/26 08:59:50;;;;;;;632.95;362.48;;;;;;;12.02;100.00;97762.91;5055914;28;20073;-57
2023/12/26 09:02:16;;;;;;;735.83;575.78;;;;;;;12.87;100.00;97759.06;5042229;28;20355;-59
2023/12/26 09:04:41;;;;;;;609.70;477.15;;;;;;;12.61;100.00;97760.34;5056390;28;20063;-59
2023/12/26 09:07:06;;;;;;;726.80;369.00;;;;;;;12.21;100.00;97766.16;5056605;28;20165;-59
2023/12/26 09:09:32;;;;;;;607.80;353.95;;;;;;;11.66;100.00;97771.97;5059964;28;20036;-57
2023/12/26 09:11:59;;;;;;;616.05;382.85;;;;;;;12.16;100.00;97780.97;5061998;28;20615;-55
2023/12/26 09:14:24;;;;;;;573.42;362.00;;;;;;;11.57;100.00;97788.59;5064260;28;20048;-56
2023/12/26 09:16:50;;;;;;;573.10;354.42;;;;;;;11.70;100.00;97781.50;5064471;28;20028;-56
2023/12/26 09:19:15;;;;;;;678.13;367.25;;;;;;;11.76;100.00;97793.59;5063058;28;20137;-56
2023/12/26 09:21:41;;;;;;;563.88;301.83;;;;;;;11.72;100.00;97792.75;5063866;28;20443;-59
2023/12/26 09:24:06;;;;;;;702.78;473.17;;;;;;;11.71;100.00;97798.00;5061477;28;20044;-58
2023/12/26 09:26:32;;;;;;;613.40;402.75;;;;;;;12.14;100.00;97807.06;5063264;28;20221;-58
2023/12/26 09:28:57;;;;;;;613.17;387.15;;;;;;;12.15;100.00;97820.97;5063934;28;20036;-58
2023/12/26 09:31:23;;;;;;;612.60;404.17;;;;;;;11.88;100.00;97818.63;5062608;28;20454;-58
2023/12/26 09:33:48;;;;;;;576.90;312.05;;;;;;;11.37;100.00;97821.78;5063776;28;20028;-57
2023/12/26 09:36:14;;;;;;;664.30;424.20;;;;;;;11.77;100.00;97818.75;5062400;28;20040;-60
2023/12/26 09:38:41;;;;;;;585.50;318.92;;;;;;;11.30;100.00;97823.56;5063188;28;20028;-59
2023/12/26 09:41:08;;;;;;;693.97;476.48;;;;;;;12.10;100.00;97814.06;5061473;28;20044;-58
2023/12/26 09:43:36;;;;;;;686.10;566.08;;;;;;;11.93;100.00;97824.69;5063908;28;20037;-60
2023/12/26 09:46:03;;;;;;;647.42;406.58;;;;;;;11.85;100.00;97824.75;5061409;28;20040;-57
2023/12/26 09:48:33;;;;;;;594.42;370.48;;;;;;;11.95;100.00;97829.88;5062807;28;20020;-59
2023/12/26 09:51:03;;;;;;;609.90;380.63;;;;;;;12.16;100.00;97823.56;5063191;28;20047;-58
2023/12/26 09:53:30;;;;;;;632.08;354.20;;;;;;;11.71;100.00;97837.06;5063320;28;20089;-59
2023/12/26 09:55:56;;;;;;;613.30;401.08;;;;;;;11.55;100.00;97841.56;5062684;28;20036;-59
2023/12/26 09:58:21;;;;;;;545.00;294.52;;;;;;;11.70;100.00;97844.00;5062997;28;20097;-59
2023/12/26 10:00:49;;;;;;;608.78;302.77;;;;;;;11.06;100.00;97849.78;5063072;28;20048;-61
2023/12/26 10:03:14;;;;;;;725.72;497.95;;;;;;;9.66;100.00;97852.16;5062554;28;20067;-59
2023/12/26 10:05:39;;;;;;;621.70;489.73;;;;;;;9.39;100.00;97854.75;5063123;28;20036;-58
2023/12/26 10:08:05;;;;;;;691.80;452.27;;;;;;;9.19;100.00;97845.28;5061767;28;20379;-58
2023/12/26 10:10:30;;;;;;;578.42;385.23;;;;;;;9.25;100.00;97836.63;5062073;28;20028;-59
2023/12/26 10:12:55;;;;;;;579.33;356.40;;;;;;;9.38;100.00;97853.91;5063436;28;20035;-59
2023/12/26 10:15:21;;;;;;;723.92;595.50;;;;;;;9.23;100.00;97838.34;5060821;28;20545;-59
2023/12/26 10:17:47;;;;;;;563.03;378.90;;;;;;;9.34;100.00;97843.53;5063529;28;20028;-58
2023/12/26 10:20:16;;;;;;;804.80;660.13;;;;;;;9.24;100.00;97850.44;5060550;28;20020;-59
2023/12/26 10:22:43;;;;;;;600.58;427.50;;;;;;;9.27;100.00;97862.59;5062318;28;20131;-58
2023/12/26 10:25:10;;;;;;;602.17;402.10;;;;;;;9.17;100.00;97859.97;5060864;28;20474;-58
2023/12/26 10:27:36;;;;;;;555.55;399.05;;;;;;;9.20;100.00;97875.53;5062165;28;20032;-58
2023/12/26 10:30:01;;;;;;;655.05;547.72;;;;;;;9.14;100.00;97872.97;5060435;28;20396;-59
2023/12/26 10:32:27;;;;;;;538.63;371.92;;;;;;;9.76;100.00;97874.63;5062383;28;20506;-60
2023/12/26 10:34:52;;;;;;;616.20;479.35;;;;;;;9.98;100.00;97869.41;5062515;28;20032;-58
2023/12/26 10:37:21;;;;;;;594.53;361.02;;;;;;;10.27;100.00;97869.28;5061105;28;20056;-58
2023/12/26 10:39:47;;;;;;;565.38;422.35;;;;;;;10.37;100.00;97875.31;5062518;28;20032;-57
2023/12/26 10:42:17;;;;;;;622.47;331.65;;;;;;;10.52;100.00;97866.63;5059963;28;20045;-58
2023/12/26 10:44:58;;;;;;;545.00;324.05;;;;;;;10.58;100.00;97877.84;5062382;28;20495;-59
2023/12/26 10:47:27;;;;;;;590.30;441.20;;;;;;;10.81;100.00;97869.94;5062060;28;20045;-58